Time;durP1;ratioP1;P1;durP2;ratioP2;P2;SDS_P1;SDS_P2;PMS_P1;PMS_P2;Temp;Humidity;BMP_temperature;BMP_pressure;BME280_temperature;BME280_humidity;BME280_pressure;Samples;Min_cycle;Max_cycle;Signal;HPM_P1;HPM_P2
2023/09/09 00:01:37;;;;;;;463.65;227.13;;;;;;;;;;5003460;28;20025;-70
2023/09/09 00:04:04;;;;;;;459.88;225.93;;;;;;;;;;5019530;28;20403;-69
2023/09/09 00:06:30;;;;;;;466.20;232.05;;;;;;;;;;5018672;28;20048;-70
2023/09/09 00:08:56;;;;;;;441.92;219.35;;;;;;;;;;5014908;28;20149;-69
2023/09/09 00:11:22;;;;;;;412.98;220.68;;;;;;;;;;4984085;28;20021;-70
2023/09/09 00:13:48;;;;;;;435.52;222.18;;;;;;;;;;5020853;28;20112;-69
2023/09/09 00:16:15;;;;;;;428.20;213.05;;;;;;;;;;5016206;28;20157;-70
2023/09/09 00:18:41;;;;;;;389.65;193.98;;;;;;;;;;5003580;28;20380;-69
2023/09/09 00:21:07;;;;;;;445.98;231.48;;;;;;;;;;5010643;28;20140;-70
2023/09/09 00:23:33;;;;;;;386.63;202.82;;;;;;;;;;5013109;28;20065;-70
2023/09/09 00:25:59;;;;;;;394.67;206.00;;;;;;;;;;5006136;28;20042;-70
2023/09/09 00:28:25;;;;;;;392.73;209.57;;;;;;;;;;5000915;28;20026;-69
2023/09/09 00:30:52;;;;;;;402.25;210.00;;;;;;;;;;5021745;28;20037;-69
2023/09/09 00:33:18;;;;;;;317.67;175.35;;;;;;;;;;5006678;28;20041;-69
2023/09/09 00:35:44;;;;;;;289.73;164.50;;;;;;;;;;5013671;28;20414;-69
2023/09/09 00:38:12;;;;;;;294.58;155.38;;;;;;;;;;5023483;28;20435;-69
2023/09/09 00:40:38;;;;;;;334.35;177.82;;;;;;;;;;5022118;28;20031;-69
2023/09/09 00:43:04;;;;;;;437.98;215.35;;;;;;;;;;5011311;28;20148;-69
2023/09/09 00:45:30;;;;;;;446.73;225.45;;;;;;;;;;5010186;28;20129;-69
2023/09/09 00:47:57;;;;;;;459.00;234.30;;;;;;;;;;5024082;28;20391;-70
2023/09/09 00:50:24;;;;;;;473.60;239.77;;;;;;;;;;5002316;28;20038;-70
2023/09/09 00:52:50;;;;;;;483.48;237.98;;;;;;;;;;4997135;28;20054;-70
2023/09/09 00:55:16;;;;;;;466.08;230.45;;;;;;;;;;5010124;28;20018;-70
2023/09/09 00:57:43;;;;;;;461.25;220.18;;;;;;;;;;5017158;28;20017;-70
2023/09/09 01:00:09;;;;;;;422.48;208.95;;;;;;;;;;5000042;28;20505;-70
2023/09/09 01:02:38;;;;;;;463.17;217.48;;;;;;;;;;4995342;28;20117;-70
2023/09/09 01:05:05;;;;;;;401.58;198.52;;;;;;;;;;4992287;28;20040;-70
2023/09/09 01:07:48;;;;;;;511.38;234.45;;;;;;;;;;4998243;28;20031;-70
2023/09/09 01:10:15;;;;;;;481.58;228.40;;;;;;;;;;4989001;28;20097;-70
2023/09/09 01:12:42;;;;;;;551.35;247.95;;;;;;;;;;4996542;28;20017;-70
2023/09/09 01:15:08;;;;;;;555.28;248.15;;;;;;;;;;5002384;28;20037;-69
2023/09/09 01:17:35;;;;;;;664.85;289.00;;;;;;;;;;5014379;28;20030;-69
2023/09/09 01:20:07;;;;;;;621.53;284.90;;;;;;;;;;4980912;28;20022;-71
2023/09/09 01:22:35;;;;;;;672.03;301.38;;;;;;;;;;5007696;28;20018;-69
2023/09/09 01:25:05;;;;;;;633.38;285.95;;;;;;;;;;5018426;28;20493;-69
2023/09/09 01:27:31;;;;;;;714.73;309.73;;;;;;;;;;4981691;28;20507;-69
2023/09/09 01:29:58;;;;;;;742.60;318.55;;;;;;;;;;5006510;28;20037;-70
2023/09/09 01:32:24;;;;;;;773.88;320.83;;;;;;;;;;5014506;28;20040;-69
2023/09/09 01:34:51;;;;;;;738.90;317.33;;;;;;;;;;5022262;28;20109;-69
2023/09/09 01:37:17;;;;;;;896.15;352.48;;;;;;;;;;5005823;28;20029;-70
2023/09/09 01:39:43;;;;;;;773.20;326.77;;;;;;;;;;5004300;28;20044;-70
2023/09/09 01:42:09;;;;;;;845.85;343.40;;;;;;;;;;5008598;28;20044;-72
2023/09/09 01:44:36;;;;;;;821.67;345.60;;;;;;;;;;5024710;28;20124;-69
2023/09/09 01:47:03;;;;;;;775.33;332.27;;;;;;;;;;5007128;28;20033;-70
2023/09/09 01:49:29;;;;;;;790.88;349.40;;;;;;;;;;5023353;28;20041;-70
2023/09/09 01:51:55;;;;;;;840.75;349.90;;;;;;;;;;5010099;28;20026;-69
2023/09/09 01:54:21;;;;;;;797.88;333.52;;;;;;;;;;5012503;28;20038;-70
2023/09/09 01:56:48;;;;;;;845.58;339.98;;;;;;;;;;5010378;28;20317;-70
2023/09/09 01:59:14;;;;;;;798.70;324.58;;;;;;;;;;5005037;28;20418;-69
2023/09/09 02:01:40;;;;;;;790.80;307.38;;;;;;;;;;4991046;28;20115;-71
2023/09/09 02:04:06;;;;;;;830.00;322.90;;;;;;;;;;5011833;28;20034;-69
2023/09/09 02:06:34;;;;;;;989.20;328.92;;;;;;;;;;5009201;28;20041;-70
2023/09/09 02:09:01;;;;;;;1075.78;332.13;;;;;;;;;;4998104;28;20079;-70
2023/09/09 02:11:28;;;;;;;976.30;328.95;;;;;;;;;;4995514;28;20061;-69
2023/09/09 02:13:54;;;;;;;681.88;296.60;;;;;;;;;;5016196;28;20035;-71
2023/09/09 02:16:20;;;;;;;821.63;325.55;;;;;;;;;;4993951;28;20029;-69
2023/09/09 02:18:46;;;;;;;856.55;321.98;;;;;;;;;;5025682;28;20025;-70
2023/09/09 02:21:13;;;;;;;926.53;348.05;;;;;;;;;;4979250;28;20116;-71
2023/09/09 02:23:41;;;;;;;876.60;335.95;;;;;;;;;;4989446;28;20026;-69
2023/09/09 02:26:08;;;;;;;799.10;325.10;;;;;;;;;;4994865;28;20029;-69
2023/09/09 02:28:35;;;;;;;711.80;305.17;;;;;;;;;;4999394;28;20037;-70
2023/09/09 02:31:02;;;;;;;618.08;284.58;;;;;;;;;;4989736;28;20037;-70
2023/09/09 02:33:29;;;;;;;576.83;265.85;;;;;;;;;;5012952;28;20046;-71
2023/09/09 02:35:55;;;;;;;506.13;248.10;;;;;;;;;;5000543;28;20053;-69
2023/09/09 02:38:21;;;;;;;472.83;232.40;;;;;;;;;;5018253;28;20029;-70
2023/09/09 02:40:47;;;;;;;448.25;224.70;;;;;;;;;;5010784;28;20022;-70
2023/09/09 02:43:13;;;;;;;458.60;212.43;;;;;;;;;;4982070;28;20041;-70
2023/09/09 02:45:39;;;;;;;391.80;196.52;;;;;;;;;;5000811;28;20033;-70
2023/09/09 02:48:06;;;;;;;322.30;172.20;;;;;;;;;;5016613;28;20099;-70
2023/09/09 02:50:32;;;;;;;780.20;221.10;;;;;;;;;;5005618;28;20060;-70
2023/09/09 02:52:58;;;;;;;904.80;241.02;;;;;;;;;;5018721;28;20067;-70
2023/09/09 02:55:24;;;;;;;436.40;203.30;;;;;;;;;;5007553;28;20368;-72
2023/09/09 02:57:50;;;;;;;508.65;218.80;;;;;;;;;;5002842;28;20026;-70
2023/09/09 03:00:17;;;;;;;508.33;214.65;;;;;;;;;;5001766;28;20371;-70
2023/09/09 03:02:43;;;;;;;452.42;209.45;;;;;;;;;;5014978;28;20395;-70
2023/09/09 03:05:10;;;;;;;437.20;204.35;;;;;;;;;;4996972;28;20461;-70
2023/09/09 03:07:37;;;;;;;393.92;194.23;;;;;;;;;;5023424;28;20037;-70
2023/09/09 03:10:03;;;;;;;451.08;210.25;;;;;;;;;;5022339;28;20045;-72
2023/09/09 03:12:30;;;;;;;438.40;204.25;;;;;;;;;;5011279;28;20557;-70
2023/09/09 03:14:56;;;;;;;716.75;233.65;;;;;;;;;;4997900;28;20171;-69
2023/09/09 03:17:22;;;;;;;1295.70;260.60;;;;;;;;;;5023640;28;20036;-70
2023/09/09 03:19:48;;;;;;;1085.20;266.10;;;;;;;;;;5010765;28;20125;-69
2023/09/09 03:22:15;;;;;;;629.13;258.45;;;;;;;;;;5022974;28;20017;-70
2023/09/09 03:24:41;;;;;;;590.40;255.45;;;;;;;;;;5018330;28;20021;-70
2023/09/09 03:27:07;;;;;;;659.65;271.48;;;;;;;;;;4999796;28;20087;-70
2023/09/09 03:29:34;;;;;;;647.95;261.42;;;;;;;;;;5005293;28;20053;-70
2023/09/09 03:32:00;;;;;;;637.85;261.58;;;;;;;;;;5006314;28;20035;-71
2023/09/09 03:34:26;;;;;;;624.67;254.73;;;;;;;;;;5001735;28;20033;-72
2023/09/09 03:36:52;;;;;;;675.78;274.05;;;;;;;;;;4991195;28;20042;-70
2023/09/09 03:39:18;;;;;;;819.90;282.25;;;;;;;;;;4994375;28;20013;-71
2023/09/09 03:41:45;;;;;;;769.45;291.17;;;;;;;;;;4985691;28;20637;-71
2023/09/09 03:44:11;;;;;;;678.47;282.85;;;;;;;;;;4999161;28;20047;-71
2023/09/09 03:46:37;;;;;;;798.83;287.17;;;;;;;;;;5003681;28;20588;-71
2023/09/09 03:49:03;;;;;;;1046.82;304.33;;;;;;;;;;5017814;28;20041;-71
2023/09/09 03:51:30;;;;;;;645.33;262.52;;;;;;;;;;4992863;28;20527;-70
2023/09/09 03:53:56;;;;;;;539.97;234.20;;;;;;;;;;5010503;28;20033;-70
2023/09/09 03:56:22;;;;;;;318.27;172.23;;;;;;;;;;5015921;28;20028;-70
2023/09/09 03:58:49;;;;;;;349.58;191.43;;;;;;;;;;5010674;28;20036;-70
2023/09/09 04:01:15;;;;;;;350.00;186.73;;;;;;;;;;5016423;28;20025;-70
2023/09/09 04:03:41;;;;;;;332.77;186.05;;;;;;;;;;4991133;28;20156;-71
2023/09/09 04:06:12;;;;;;;344.60;189.77;;;;;;;;;;4995415;28;20038;-71
2023/09/09 04:08:40;;;;;;;440.20;207.90;;;;;;;;;;5014482;28;20033;-70
2023/09/09 04:11:07;;;;;;;1596.55;281.67;;;;;;;;;;5001337;28;20038;-71
2023/09/09 04:13:37;;;;;;;958.08;248.35;;;;;;;;;;5006051;28;20038;-71
2023/09/09 04:16:04;;;;;;;1872.57;296.42;;;;;;;;;;5005260;28;20194;-70
2023/09/09 04:18:30;;;;;;;1662.30;304.67;;;;;;;;;;4987358;28;20061;-71
2023/09/09 04:20:56;;;;;;;818.05;268.38;;;;;;;;;;5002200;28;20029;-70
2023/09/09 04:23:23;;;;;;;1430.28;294.02;;;;;;;;;;5020390;28;20056;-72
2023/09/09 04:25:49;;;;;;;1000.20;263.65;;;;;;;;;;5003279;28;20057;-69
2023/09/09 04:28:15;;;;;;;1410.07;284.33;;;;;;;;;;4996953;28;20036;-71
2023/09/09 04:30:45;;;;;;;1999.90;317.70;;;;;;;;;;5003557;28;20084;-71
2023/09/09 04:33:12;;;;;;;1999.90;324.08;;;;;;;;;;5004704;28;20061;-70
2023/09/09 04:35:42;;;;;;;1968.88;308.27;;;;;;;;;;4997154;28;20048;-71
2023/09/09 04:38:09;;;;;;;1999.90;326.92;;;;;;;;;;5018964;28;20025;-70
2023/09/09 04:40:37;;;;;;;1835.50;299.20;;;;;;;;;;4990930;28;20032;-70
2023/09/09 04:43:03;;;;;;;1999.90;306.23;;;;;;;;;;5015262;28;20025;-70
2023/09/09 04:45:30;;;;;;;1999.90;324.17;;;;;;;;;;4998420;28;20025;-70
2023/09/09 04:47:57;;;;;;;1999.90;308.77;;;;;;;;;;5000153;28;20491;-72
2023/09/09 04:50:24;;;;;;;1833.20;297.95;;;;;;;;;;5001128;28;20120;-71
2023/09/09 04:52:50;;;;;;;1910.13;294.20;;;;;;;;;;5004478;28;20047;-71
2023/09/09 04:55:17;;;;;;;1999.90;298.35;;;;;;;;;;5010816;28;20036;-71
2023/09/09 04:57:43;;;;;;;1525.20;280.83;;;;;;;;;;5020427;28;20028;-71
2023/09/09 05:00:11;;;;;;;1151.85;250.55;;;;;;;;;;5000140;28;20120;-70
2023/09/09 05:02:39;;;;;;;1216.97;248.40;;;;;;;;;;4980498;28;20086;-71
2023/09/09 05:05:06;;;;;;;1377.18;258.65;;;;;;;;;;4986921;28;20033;-70
2023/09/09 05:07:34;;;;;;;1151.10;253.80;;;;;;;;;;4992992;28;20040;-70
2023/09/09 05:10:04;;;;;;;1445.97;256.15;;;;;;;;;;4998021;28;20068;-72
2023/09/09 05:12:31;;;;;;;1798.15;251.68;;;;;;;;;;4980758;28;20056;-72
2023/09/09 05:14:58;;;;;;;1660.72;250.90;;;;;;;;;;4997236;28;20448;-71
2023/09/09 05:17:25;;;;;;;1934.60;257.55;;;;;;;;;;5002387;28;20498;-71
2023/09/09 05:19:51;;;;;;;1472.13;223.20;;;;;;;;;;5010636;28;20030;-71
2023/09/09 05:22:17;;;;;;;1905.80;243.38;;;;;;;;;;5005161;28;20032;-71
2023/09/09 05:24:44;;;;;;;1731.38;238.73;;;;;;;;;;5000340;28;20033;-71
2023/09/09 05:27:10;;;;;;;1597.78;228.23;;;;;;;;;;4999960;28;20502;-71
2023/09/09 05:29:36;;;;;;;1177.25;201.23;;;;;;;;;;5000026;28;20488;-70
2023/09/09 05:32:02;;;;;;;1659.20;226.48;;;;;;;;;;4990353;28;20061;-71
2023/09/09 05:34:28;;;;;;;969.85;186.70;;;;;;;;;;5000702;28;20038;-73
2023/09/09 05:36:55;;;;;;;1722.35;223.98;;;;;;;;;;5012154;28;20072;-70
2023/09/09 05:39:21;;;;;;;1313.43;200.23;;;;;;;;;;4995551;28;20479;-71
2023/09/09 05:41:47;;;;;;;1205.05;181.10;;;;;;;;;;4985312;28;20108;-72
2023/09/09 05:44:14;;;;;;;1074.13;175.57;;;;;;;;;;4998089;28;20030;-71
2023/09/09 05:46:40;;;;;;;751.65;163.88;;;;;;;;;;5012683;28;20061;-71
2023/09/09 05:49:06;;;;;;;770.92;161.15;;;;;;;;;;5024253;28;20030;-70
2023/09/09 05:51:33;;;;;;;1484.80;190.63;;;;;;;;;;5000484;28;20033;-71
2023/09/09 05:54:00;;;;;;;1534.15;192.45;;;;;;;;;;5009659;28;20041;-71
2023/09/09 05:56:27;;;;;;;1531.78;186.38;;;;;;;;;;5003992;28;20084;-71
2023/09/09 05:58:55;;;;;;;1226.32;172.73;;;;;;;;;;5023575;28;20112;-71
2023/09/09 06:01:22;;;;;;;1525.18;187.32;;;;;;;;;;4994344;28;20056;-70
2023/09/09 06:03:54;;;;;;;1295.50;176.05;;;;;;;;;;5007059;28;20045;-70
2023/09/09 06:06:22;;;;;;;1298.13;177.55;;;;;;;;;;5020112;28;20037;-71
2023/09/09 06:08:48;;;;;;;1781.68;193.48;;;;;;;;;;5010242;28;20441;-70
2023/09/09 06:11:14;;;;;;;1244.97;169.30;;;;;;;;;;5011114;28;20395;-71
2023/09/09 06:13:41;;;;;;;1470.35;180.73;;;;;;;;;;5009631;28;20056;-69
2023/09/09 06:16:08;;;;;;;1852.25;188.20;;;;;;;;;;4997394;28;20029;-70
2023/09/09 06:18:34;;;;;;;1999.90;208.50;;;;;;;;;;5007581;28;20382;-70
2023/09/09 06:21:01;;;;;;;1016.60;150.25;;;;;;;;;;5025297;28;20029;-71
2023/09/09 06:23:28;;;;;;;1365.97;180.20;;;;;;;;;;5011284;28;20034;-71
2023/09/09 06:25:54;;;;;;;1604.90;196.25;;;;;;;;;;5015146;28;20026;-69
2023/09/09 06:28:20;;;;;;;615.08;150.52;;;;;;;;;;5005866;28;20119;-70
2023/09/09 06:30:47;;;;;;;855.30;147.18;;;;;;;;;;4999560;28;20037;-72
2023/09/09 06:33:13;;;;;;;1043.00;155.98;;;;;;;;;;5005547;28;20251;-70
2023/09/09 06:35:49;;;;;;;1088.93;147.32;;;;;;;;;;4986606;28;20042;-71
2023/09/09 06:38:15;;;;;;;807.05;141.48;;;;;;;;;;4998414;28;20025;-70
2023/09/09 06:40:44;;;;;;;677.55;138.35;;;;;;;;;;5015393;28;20034;-71
2023/09/09 06:43:11;;;;;;;1445.93;154.60;;;;;;;;;;5011651;28;20046;-71
2023/09/09 06:45:37;;;;;;;1413.38;146.55;;;;;;;;;;5010805;28;20033;-70
2023/09/09 06:48:03;;;;;;;1999.90;215.68;;;;;;;;;;5011713;28;20038;-71
2023/09/09 06:50:29;;;;;;;1999.90;237.23;;;;;;;;;;5011883;28;20473;-71
2023/09/09 06:52:55;;;;;;;1999.90;196.23;;;;;;;;;;5010506;28;20041;-70
2023/09/09 06:55:22;;;;;;;1031.65;137.73;;;;;;;;;;5011651;28;20073;-70
2023/09/09 06:57:48;;;;;;;1073.32;125.53;;;;;;;;;;4982992;28;20026;-70
2023/09/09 07:00:14;;;;;;;1331.32;138.43;;;;;;;;;;4992326;28;20034;-71
2023/09/09 07:02:40;;;;;;;1188.88;134.00;;;;;;;;;;4992103;28;20027;-70
2023/09/09 07:05:07;;;;;;;1584.88;155.70;;;;;;;;;;5006887;28;20049;-70
2023/09/09 07:07:33;;;;;;;692.85;114.25;;;;;;;;;;5013116;28;20136;-70
2023/09/09 07:09:59;;;;;;;764.15;112.68;;;;;;;;;;5010954;28;20150;-71
2023/09/09 07:12:26;;;;;;;869.60;113.22;;;;;;;;;;4992253;28;20643;-71
2023/09/09 07:14:52;;;;;;;696.38;111.68;;;;;;;;;;5012250;28;20046;-70
2023/09/09 07:17:18;;;;;;;521.00;114.18;;;;;;;;;;5009744;28;20038;-70
2023/09/09 07:19:44;;;;;;;685.30;114.90;;;;;;;;;;5011881;28;20084;-70
2023/09/09 07:22:10;;;;;;;495.75;116.50;;;;;;;;;;5011607;28;20100;-70
2023/09/09 07:24:36;;;;;;;765.22;121.88;;;;;;;;;;5009909;28;20038;-70
2023/09/09 07:27:03;;;;;;;742.15;123.85;;;;;;;;;;5010228;28;20034;-70
2023/09/09 07:29:29;;;;;;;596.85;123.93;;;;;;;;;;4994137;28;20377;-71
2023/09/09 07:31:56;;;;;;;727.80;138.43;;;;;;;;;;5007993;28;20030;-71
2023/09/09 07:34:23;;;;;;;439.48;107.47;;;;;;;;;;5011116;28;20436;-71
2023/09/09 07:36:50;;;;;;;412.80;116.35;;;;;;;;;;5010258;28;20041;-70
2023/09/09 07:39:16;;;;;;;452.70;123.38;;;;;;;;;;5010925;28;20121;-69
2023/09/09 07:41:42;;;;;;;354.33;110.97;;;;;;;;;;5009271;28;20028;-71
2023/09/09 07:44:09;;;;;;;258.08;110.82;;;;;;;;;;4993027;28;20030;-70
2023/09/09 07:46:35;;;;;;;274.02;111.53;;;;;;;;;;5000259;28;20093;-71
2023/09/09 07:49:02;;;;;;;246.00;106.13;;;;;;;;;;4999886;28;20056;-71
2023/09/09 07:51:28;;;;;;;217.68;110.68;;;;;;;;;;4975885;28;20062;-70
2023/09/09 07:53:55;;;;;;;199.10;115.13;;;;;;;;;;4957812;28;20043;-70
2023/09/09 07:56:21;;;;;;;184.88;108.18;;;;;;;;;;4989345;28;20550;-71
2023/09/09 07:58:47;;;;;;;176.35;108.90;;;;;;;;;;4999450;28;20018;-71
2023/09/09 08:01:13;;;;;;;158.95;102.25;;;;;;;;;;5002540;28;20105;-71
2023/09/09 08:03:39;;;;;;;158.02;101.07;;;;;;;;;;5010887;28;20420;-69
2023/09/09 08:06:06;;;;;;;149.30;100.90;;;;;;;;;;4992710;28;20423;-71
2023/09/09 08:08:33;;;;;;;151.98;105.00;;;;;;;;;;4975694;28;20051;-70
2023/09/09 08:10:59;;;;;;;139.88;93.22;;;;;;;;;;5010605;28;20037;-70
2023/09/09 08:13:25;;;;;;;149.35;98.20;;;;;;;;;;5010010;28;20044;-71
2023/09/09 08:15:52;;;;;;;150.98;100.90;;;;;;;;;;5010432;28;20018;-71
2023/09/09 08:18:18;;;;;;;158.52;103.90;;;;;;;;;;5007903;28;20399;-70
2023/09/09 08:20:44;;;;;;;158.98;104.20;;;;;;;;;;4988806;28;20030;-70
2023/09/09 08:23:10;;;;;;;149.27;102.25;;;;;;;;;;5007630;28;20041;-71
2023/09/09 08:25:36;;;;;;;145.85;105.18;;;;;;;;;;5009038;28;20046;-70
2023/09/09 08:28:03;;;;;;;135.05;98.30;;;;;;;;;;5009716;28;20049;-70
2023/09/09 08:30:30;;;;;;;132.23;98.88;;;;;;;;;;5008535;28;20542;-70
2023/09/09 08:32:57;;;;;;;131.57;100.30;;;;;;;;;;4990768;28;20038;-69
2023/09/09 08:35:26;;;;;;;122.50;93.47;;;;;;;;;;5007716;28;20091;-70
2023/09/09 08:37:52;;;;;;;124.50;97.65;;;;;;;;;;4991820;28;20030;-71
2023/09/09 08:40:19;;;;;;;121.72;92.65;;;;;;;;;;5009830;28;20084;-71
2023/09/09 08:42:56;;;;;;;107.03;85.55;;;;;;;;;;5009144;28;20022;-70
2023/09/09 08:45:47;;;;;;;106.30;84.82;;;;;;;;;;5009975;28;20034;-71
2023/09/09 08:48:18;;;;;;;99.43;78.70;;;;;;;;;;5009693;28;20018;-70
2023/09/09 08:50:46;;;;;;;89.20;73.03;;;;;;;;;;5008598;28;20029;-70
2023/09/09 08:53:14;;;;;;;88.05;72.60;;;;;;;;;;5008097;28;20037;-70
2023/09/09 08:55:41;;;;;;;89.72;71.78;;;;;;;;;;5009980;28;20045;-70
2023/09/09 08:58:07;;;;;;;81.18;65.25;;;;;;;;;;5008968;28;20484;-70
2023/09/09 09:00:36;;;;;;;77.38;64.22;;;;;;;;;;4992243;28;20037;-70
2023/09/09 09:03:02;;;;;;;81.15;69.90;;;;;;;;;;4992499;28;20062;-70
2023/09/09 09:05:32;;;;;;;70.22;57.75;;;;;;;;;;5006563;28;20029;-70
2023/09/09 09:07:58;;;;;;;70.90;60.90;;;;;;;;;;5006788;28;20060;-71
2023/09/09 09:10:24;;;;;;;87.57;67.90;;;;;;;;;;5008887;28;20026;-69
2023/09/09 09:12:51;;;;;;;75.95;62.97;;;;;;;;;;5009530;28;20078;-71
2023/09/09 09:15:17;;;;;;;73.30;61.33;;;;;;;;;;5009298;28;20048;-70
2023/09/09 09:17:44;;;;;;;75.82;64.13;;;;;;;;;;5009442;28;20048;-70
2023/09/09 09:20:30;;;;;;;71.78;57.13;;;;;;;;;;4992508;28;20030;-70
2023/09/09 09:23:04;;;;;;;69.97;58.42;;;;;;;;;;4989877;28;20495;-71
2023/09/09 09:25:35;;;;;;;70.88;56.53;;;;;;;;;;5003140;28;20088;-69
2023/09/09 09:28:02;;;;;;;59.72;51.42;;;;;;;;;;5008759;28;20049;-71
2023/09/09 09:30:29;;;;;;;62.20;49.70;;;;;;;;;;5006412;28;20038;-70
2023/09/09 09:32:56;;;;;;;59.35;48.42;;;;;;;;;;4992244;28;20038;-70
2023/09/09 09:35:32;;;;;;;47.42;37.97;;;;;;;;;;5014224;28;20042;-70
2023/09/09 09:38:13;;;;;;;40.83;33.70;;;;;;;;;;5007007;28;20547;-69
2023/09/09 09:40:40;;;;;;;45.63;35.70;;;;;;;;;;5002520;28;20053;-69
2023/09/09 09:43:17;;;;;;;51.45;44.10;;;;;;;;;;5010883;28;20122;-71
2023/09/09 09:45:43;;;;;;;51.13;42.28;;;;;;;;;;5009890;28;20046;-69
2023/09/09 09:48:09;;;;;;;47.47;40.22;;;;;;;;;;5008421;28;20379;-69
2023/09/09 09:50:37;;;;;;;42.03;35.83;;;;;;;;;;5013186;28;20037;-69
2023/09/09 09:53:08;;;;;;;40.90;35.55;;;;;;;;;;5011477;28;20034;-69
2023/09/09 09:55:36;;;;;;;38.85;33.53;;;;;;;;;;4999793;28;20042;-69
2023/09/09 09:58:04;;;;;;;36.55;30.38;;;;;;;;;;4995374;28;20043;-69
2023/09/09 10:00:30;;;;;;;33.30;28.88;;;;;;;;;;5019085;28;20021;-70
2023/09/09 10:02:58;;;;;;;32.53;28.55;;;;;;;;;;4997175;28;20033;-69
2023/09/09 10:05:25;;;;;;;30.13;26.90;;;;;;;;;;5016286;28;20029;-69
2023/09/09 10:07:56;;;;;;;30.70;27.13;;;;;;;;;;5011321;28;20495;-69
2023/09/09 10:10:24;;;;;;;30.60;27.30;;;;;;;;;;5021553;28;20025;-70
2023/09/09 10:12:57;;;;;;;34.80;24.85;;;;;;;;;;5024237;28;20124;-69
2023/09/09 10:15:24;;;;;;;26.88;22.38;;;;;;;;;;5018624;28;20034;-71
2023/09/09 10:17:51;;;;;;;23.30;20.27;;;;;;;;;;5014559;28;20025;-70
2023/09/09 10:20:18;;;;;;;27.00;21.83;;;;;;;;;;5003343;28;20112;-70
2023/09/09 10:22:44;;;;;;;22.33;19.88;;;;;;;;;;5013668;28;20030;-69
2023/09/09 10:25:11;;;;;;;23.95;19.83;;;;;;;;;;5003716;28;20029;-69
2023/09/09 10:27:41;;;;;;;28.20;19.13;;;;;;;;;;5010813;28;20038;-70
2023/09/09 10:30:11;;;;;;;24.98;18.23;;;;;;;;;;5002385;28;20411;-70
2023/09/09 10:32:38;;;;;;;26.60;19.58;;;;;;;;;;5008467;28;20253;-69
2023/09/09 10:35:08;;;;;;;21.13;18.90;;;;;;;;;;5007672;28;20093;-70
2023/09/09 10:37:35;;;;;;;;;;;;;;;;;;5012165;28;20088;-70
2023/09/09 10:40:03;;;;;;;20.80;18.45;;;;;;;;;;4989274;28;19959;-69
2023/09/09 10:42:29;;;;;;;21.98;19.05;;;;;;;;;;5007984;28;20084;-70
2023/09/09 10:44:57;;;;;;;20.35;18.13;;;;;;;;;;4991453;28;20738;-71
2023/09/09 10:47:24;;;;;;;24.08;17.02;;;;;;;;;;5015548;28;20029;-69
2023/09/09 10:50:02;;;;;;;16.58;12.75;;;;;;;;;;5011473;28;20042;-69
2023/09/09 10:52:32;;;;;;;17.83;13.50;;;;;;;;;;5003433;28;20084;-72
2023/09/09 10:54:58;;;;;;;;;;;;;;;;;;4997514;28;20091;-69
2023/09/09 10:57:34;;;;;;;14.18;10.63;;;;;;;;;;5008001;28;19981;-69
2023/09/09 11:00:05;;;;;;;15.55;9.85;;;;;;;;;;5006999;28;20018;-68
2023/09/09 11:02:31;;;;;;;12.65;10.00;;;;;;;;;;5011342;28;20108;-69
2023/09/09 11:05:02;;;;;;;14.80;9.55;;;;;;;;;;5009448;28;20026;-69
2023/09/09 11:07:39;;;;;;;12.60;9.88;;;;;;;;;;5017640;28;20124;-69
2023/09/09 11:10:06;;;;;;;12.50;10.75;;;;;;;;;;5013011;28;20045;-71
2023/09/09 11:12:32;;;;;;;15.90;11.35;;;;;;;;;;4994280;28;20406;-68
2023/09/09 11:15:11;;;;;;;14.20;10.70;;;;;;;;;;5017160;28;20113;-69
2023/09/09 11:17:42;;;;;;;15.60;11.90;;;;;;;;;;5012123;28;20026;-69
2023/09/09 11:20:12;;;;;;;14.90;12.30;;;;;;;;;;5011100;28;20040;-69
2023/09/09 11:22:39;;;;;;;14.98;12.43;;;;;;;;;;5010547;28;20069;-70
2023/09/09 11:25:06;;;;;;;15.70;12.32;;;;;;;;;;5014180;28;20116;-68
2023/09/09 11:27:33;;;;;;;17.27;12.25;;;;;;;;;;5003987;28;20034;-69
2023/09/09 11:29:59;;;;;;;15.18;10.57;;;;;;;;;;5014996;28;20458;-70
2023/09/09 11:32:28;;;;;;;15.07;10.15;;;;;;;;;;5011594;28;20057;-68
2023/09/09 11:34:54;;;;;;;12.88;10.52;;;;;;;;;;4993700;28;20033;-70
2023/09/09 11:37:21;;;;;;;12.00;9.25;;;;;;;;;;5010260;28;20045;-69
2023/09/09 11:39:47;;;;;;;12.00;10.20;;;;;;;;;;4995650;28;20124;-70
2023/09/09 11:42:13;;;;;;;15.95;9.98;;;;;;;;;;4993350;28;20518;-69
2023/09/09 11:44:43;;;;;;;13.43;10.93;;;;;;;;;;4992926;28;20109;-69
2023/09/09 11:47:09;;;;;;;;;;;;;;;;;;5010986;28;20030;-69
2023/09/09 11:49:38;;;;;;;19.38;10.75;;;;;;;;;;5018800;28;19960;-70
2023/09/09 11:52:05;;;;;;;16.20;12.48;;;;;;;;;;5008023;28;20044;-70
2023/09/09 11:54:31;;;;;;;15.30;12.55;;;;;;;;;;5006084;28;20034;-69
2023/09/09 11:57:07;;;;;;;16.63;12.70;;;;;;;;;;4993211;28;20124;-70
2023/09/09 11:59:46;;;;;;;16.23;14.52;;;;;;;;;;5010695;28;20117;-70
2023/09/09 12:02:20;;;;;;;24.42;12.63;;;;;;;;;;4990863;28;20030;-71
2023/09/09 12:04:59;;;;;;;19.42;14.05;;;;;;;;;;5000389;28;20078;-69
2023/09/09 12:07:34;;;;;;;15.80;12.13;;;;;;;;;;5009453;28;20029;-69
2023/09/09 12:10:03;;;;;;;15.07;12.73;;;;;;;;;;4978016;28;20038;-69
2023/09/09 12:12:29;;;;;;;18.98;15.18;;;;;;;;;;5008827;28;20037;-70
2023/09/09 12:14:57;;;;;;;17.17;13.75;;;;;;;;;;5022934;28;20034;-69
2023/09/09 12:17:23;;;;;;;19.40;15.05;;;;;;;;;;5018635;28;20080;-70
2023/09/09 12:19:55;;;;;;;17.10;15.00;;;;;;;;;;5010506;28;20034;-70
2023/09/09 12:22:30;;;;;;;20.10;15.48;;;;;;;;;;5002070;28;20105;-70
2023/09/09 12:24:56;;;;;;;21.17;16.17;;;;;;;;;;5009696;28;20039;-69
2023/09/09 12:27:23;;;;;;;20.08;15.32;;;;;;;;;;5014058;28;20028;-69
2023/09/09 12:29:49;;;;;;;18.48;13.90;;;;;;;;;;5012141;28;20045;-71
2023/09/09 12:32:15;;;;;;;16.58;13.68;;;;;;;;;;5012426;28;20048;-69
2023/09/09 12:34:43;;;;;;;17.58;13.77;;;;;;;;;;4991164;28;20065;-69
2023/09/09 12:37:11;;;;;;;20.48;14.82;;;;;;;;;;5010932;28;20077;-70
2023/09/09 12:39:37;;;;;;;15.45;13.10;;;;;;;;;;5014353;28;20033;-69
2023/09/09 12:42:04;;;;;;;24.10;15.27;;;;;;;;;;4994450;28;20141;-70
2023/09/09 12:44:32;;;;;;;19.15;14.80;;;;;;;;;;5010238;28;20080;-69
2023/09/09 12:46:59;;;;;;;16.63;13.60;;;;;;;;;;5006894;28;20037;-70
2023/09/09 12:49:27;;;;;;;17.88;12.18;;;;;;;;;;5011624;28;20062;-70
2023/09/09 12:51:54;;;;;;;14.20;12.20;;;;;;;;;;4997469;28;20125;-70
2023/09/09 12:54:20;;;;;;;16.55;12.98;;;;;;;;;;4993783;28;20041;-69
2023/09/09 12:56:46;;;;;;;16.83;11.88;;;;;;;;;;4993074;28;21149;-69
2023/09/09 12:59:13;;;;;;;15.88;12.57;;;;;;;;;;5002260;28;20114;-69
2023/09/09 13:01:39;;;;;;;15.43;12.20;;;;;;;;;;5015813;28;20108;-71
2023/09/09 13:04:05;;;;;;;19.73;11.73;;;;;;;;;;5008981;28;20053;-70
2023/09/09 13:06:32;;;;;;;16.52;13.90;;;;;;;;;;5011382;28;20044;-70
2023/09/09 13:08:58;;;;;;;19.27;12.70;;;;;;;;;;4990593;28;20399;-70
2023/09/09 13:11:24;;;;;;;15.02;11.93;;;;;;;;;;5003044;28;20041;-70
2023/09/09 13:13:50;;;;;;;17.58;12.23;;;;;;;;;;4995308;28;20049;-69
2023/09/09 13:16:16;;;;;;;17.20;14.07;;;;;;;;;;5014417;28;20043;-69
2023/09/09 13:18:43;;;;;;;20.60;14.90;;;;;;;;;;5013856;28;20559;-69
2023/09/09 13:21:09;;;;;;;24.27;13.30;;;;;;;;;;4994093;28;20030;-69
2023/09/09 13:23:35;;;;;;;20.27;13.00;;;;;;;;;;5009810;28;20037;-69
2023/09/09 13:26:01;;;;;;;17.98;12.43;;;;;;;;;;5005766;28;20603;-70
2023/09/09 13:28:28;;;;;;;16.83;14.07;;;;;;;;;;5007976;28;20078;-70
2023/09/09 13:30:54;;;;;;;22.67;13.85;;;;;;;;;;5008204;28;20045;-70
2023/09/09 13:33:21;;;;;;;20.00;12.02;;;;;;;;;;4989564;28;20044;-70
2023/09/09 13:35:47;;;;;;;19.15;12.35;;;;;;;;;;5001257;28;20064;-70
2023/09/09 13:38:13;;;;;;;15.85;12.32;;;;;;;;;;4994294;28;20047;-70
2023/09/09 13:40:39;;;;;;;16.63;14.07;;;;;;;;;;4997156;28;20031;-70
2023/09/09 13:43:06;;;;;;;21.02;13.80;;;;;;;;;;4988483;28;20081;-70
2023/09/09 13:45:32;;;;;;;22.17;12.93;;;;;;;;;;5011228;28;20041;-70
2023/09/09 13:47:58;;;;;;;18.83;14.40;;;;;;;;;;5004458;28;20377;-70
2023/09/09 13:50:25;;;;;;;19.85;14.70;;;;;;;;;;4982918;28;20132;-69
2023/09/09 13:52:51;;;;;;;18.67;13.23;;;;;;;;;;4987894;28;20027;-69
2023/09/09 13:55:17;;;;;;;18.08;12.48;;;;;;;;;;5004448;28;20255;-69
2023/09/09 13:57:44;;;;;;;22.30;13.13;;;;;;;;;;5010251;28;20050;-70
2023/09/09 14:00:11;;;;;;;21.27;11.43;;;;;;;;;;5006473;28;20057;-70
2023/09/09 14:02:37;;;;;;;14.63;10.77;;;;;;;;;;5001065;28;20050;-69